No particular awareness of the weather is required.    There are no Weather-warnings


Meteo18 Weather Cam more information Meteo18 Weather Cam


Thunder radar more information blitzortung!


Rain radar more information rain snow radar


Visit our other weather sites:

Template documentation
and downloads

And another site



Weather Underground History page Text

Daily Summary for November 27, 2017 Units:  Metric    English   Both
« Previous Day
Next Day »
Daily Weekly Monthly Yearly Custom
  High: Low: Average:
Temperature: 8.4 °C 0.7 °C 4.8 °C
Dew Point: 4.8 °C -0.1 °C 2.8 °C
Humidity: 97 % 76 % 88 %
Wind Speed: 20.9 km/h 0.0 km/h 7.4 km/h
Wind Gust: 27.4 km/h - -
Wind:- - SW
Pressure: 1031.0 hPa 1018.2 hPa -
Precipitation: 0.0 mm    
Historical Graphs
 
 
Tabular Data for November 27, 2017
Time Temperature Dew Point Pressure Wind Wind Speed Wind Gust Humidity Rainfall Rate (Hourly)
00:02 1.3 °C 0.6 °C 1030.7 hPa WSW 1.6 km/h 4.8 km/h 95 % 0.0 mm
00:07 1.6 °C 1.0 °C 1030.7 hPa WSW 1.6 km/h 4.8 km/h 96 % 0.0 mm
00:12 1.7 °C 1.0 °C 1030.7 hPa WSW 1.6 km/h 4.8 km/h 95 % 0.0 mm
00:17 1.7 °C 1.0 °C 1030.7 hPa WSW 1.6 km/h 4.8 km/h 95 % 0.0 mm
00:22 1.7 °C 1.0 °C 1030.7 hPa Calm   4.8 km/h 95 % 0.0 mm
00:27 1.6 °C 0.7 °C 1031.0 hPa Calm   4.8 km/h 94 % 0.0 mm
00:37 0.9 °C 0.0 °C 1030.7 hPa Calm   3.2 km/h 94 % 0.0 mm
00:42 0.9 °C 0.0 °C 1030.7 hPa SSW 1.6 km/h 4.8 km/h 94 % 0.0 mm
00:47 0.8 °C -0.1 °C 1031.0 hPa Calm   4.8 km/h 94 % 0.0 mm
00:52 0.8 °C 0.1 °C 1031.0 hPa Calm   4.8 km/h 95 % 0.0 mm
00:57 0.7 °C 0.0 °C 1031.0 hPa SSW 1.6 km/h 1.6 km/h 95 % 0.0 mm
01:02 0.7 °C 0.0 °C 1031.0 hPa Calm   1.6 km/h 95 % 0.0 mm
01:12 0.7 °C 0.0 °C 1030.7 hPa SSW 1.6 km/h 3.2 km/h 95 % 0.0 mm
01:17 0.8 °C 0.1 °C 1030.7 hPa Calm   1.6 km/h 95 % 0.0 mm
01:22 0.8 °C 0.1 °C 1030.7 hPa SE 1.6 km/h 1.6 km/h 95 % 0.0 mm
01:27 0.9 °C 0.3 °C 1031.0 hPa Calm   3.2 km/h 96 % 0.0 mm
01:37 0.8 °C 0.1 °C 1031.0 hPa SE 1.6 km/h 4.8 km/h 95 % 0.0 mm
01:42 0.8 °C 0.1 °C 1031.0 hPa SE 1.6 km/h 4.8 km/h 95 % 0.0 mm
01:47 0.8 °C 0.2 °C 1030.7 hPa Calm   3.2 km/h 96 % 0.0 mm
01:52 0.8 °C 0.1 °C 1030.7 hPa Calm   3.2 km/h 95 % 0.0 mm
01:57 0.8 °C 0.1 °C 1030.7 hPa Calm   3.2 km/h 95 % 0.0 mm
02:02 0.8 °C 0.2 °C 1030.7 hPa Calm   3.2 km/h 96 % 0.0 mm
02:12 0.9 °C 0.3 °C 1030.7 hPa Calm   1.6 km/h 96 % 0.0 mm
02:17 0.8 °C 0.1 °C 1030.7 hPa SE 1.6 km/h 1.6 km/h 95 % 0.0 mm
02:22 0.8 °C 0.2 °C 1030.7 hPa SSE 1.6 km/h 1.6 km/h 96 % 0.0 mm
02:32 0.8 °C 0.2 °C 1030.7 hPa SE 1.6 km/h 3.2 km/h 96 % 0.0 mm
02:42 0.9 °C 0.3 °C 1030.7 hPa ESE 3.2 km/h 3.2 km/h 96 % 0.0 mm
02:47 0.9 °C 0.3 °C 1031.0 hPa SSE 1.6 km/h 4.8 km/h 96 % 0.0 mm
02:52 0.9 °C 0.3 °C 1030.7 hPa Calm   4.8 km/h 96 % 0.0 mm
02:57 0.9 °C 0.3 °C 1030.7 hPa Calm   4.8 km/h 96 % 0.0 mm
03:02 1.0 °C 0.4 °C 1030.7 hPa SSE 1.6 km/h 4.8 km/h 96 % 0.0 mm
03:07 1.1 °C 0.5 °C 1030.7 hPa SSE 1.6 km/h 4.8 km/h 96 % 0.0 mm
03:12 1.1 °C 0.5 °C 1030.7 hPa SSW 1.6 km/h 4.8 km/h 96 % 0.0 mm
03:17 1.2 °C 0.6 °C 1030.7 hPa South 1.6 km/h 6.4 km/h 96 % 0.0 mm
03:32 1.3 °C 0.7 °C 1030.7 hPa SW 3.2 km/h 8.0 km/h 96 % 0.0 mm
03:37 1.3 °C 0.7 °C 1030.7 hPa SW 3.2 km/h 8.0 km/h 96 % 0.0 mm
03:42 1.4 °C 0.8 °C 1030.7 hPa SW 1.6 km/h 8.0 km/h 96 % 0.0 mm
03:47 1.4 °C 0.8 °C 1030.4 hPa SSW 1.6 km/h 4.8 km/h 96 % 0.0 mm
03:52 1.4 °C 0.8 °C 1030.4 hPa SSW 1.6 km/h 4.8 km/h 96 % 0.0 mm
03:57 1.4 °C 0.8 °C 1030.4 hPa SSW 3.2 km/h 4.8 km/h 96 % 0.0 mm
04:02 1.4 °C 0.8 °C 1030.4 hPa SW 1.6 km/h 4.8 km/h 96 % 0.0 mm
04:12 1.6 °C 1.2 °C 1030.4 hPa WSW 1.6 km/h 4.8 km/h 97 % 0.0 mm
04:22 1.6 °C 1.0 °C 1030.4 hPa WSW 1.6 km/h 6.4 km/h 96 % 0.0 mm
04:32 1.7 °C 1.1 °C 1030.4 hPa Calm   6.4 km/h 96 % 0.0 mm
04:37 1.7 °C 1.1 °C 1030.0 hPa SW 3.2 km/h 3.2 km/h 96 % 0.0 mm
04:42 1.6 °C 1.0 °C 1030.0 hPa Calm   3.2 km/h 96 % 0.0 mm
04:47 1.6 °C 1.0 °C 1030.0 hPa SE 1.6 km/h 4.8 km/h 96 % 0.0 mm
04:52 1.4 °C 0.8 °C 1030.0 hPa SSE 1.6 km/h 4.8 km/h 96 % 0.0 mm
04:57 1.3 °C 0.7 °C 1029.7 hPa SE 1.6 km/h 4.8 km/h 96 % 0.0 mm
05:07 1.3 °C 0.7 °C 1029.7 hPa Calm   4.8 km/h 96 % 0.0 mm
05:12 1.3 °C 0.7 °C 1030.0 hPa Calm   4.8 km/h 96 % 0.0 mm
05:17 1.3 °C 0.7 °C 1029.7 hPa SSW 1.6 km/h 3.2 km/h 96 % 0.0 mm
05:22 1.3 °C 0.7 °C 1029.7 hPa SSW 1.6 km/h 3.2 km/h 96 % 0.0 mm
05:32 1.5 °C 1.1 °C 1029.7 hPa SSW 6.4 km/h 6.4 km/h 97 % 0.0 mm
05:52 1.5 °C 0.9 °C 1029.3 hPa SW 4.8 km/h 9.7 km/h 96 % 0.0 mm
05:57 1.4 °C 0.8 °C 1029.3 hPa SSW 3.2 km/h 8.0 km/h 96 % 0.0 mm
06:02 1.4 °C 0.8 °C 1029.3 hPa SW 4.8 km/h 8.0 km/h 96 % 0.0 mm
06:12 1.4 °C 0.8 °C 1029.3 hPa SW 4.8 km/h 9.7 km/h 96 % 0.0 mm
06:17 1.5 °C 0.9 °C 1029.7 hPa WSW 4.8 km/h 9.7 km/h 96 % 0.0 mm
06:22 1.5 °C 0.9 °C 1029.7 hPa SW 1.6 km/h 9.7 km/h 96 % 0.0 mm
06:27 1.5 °C 0.9 °C 1029.3 hPa SW 4.8 km/h 9.7 km/h 96 % 0.0 mm
06:32 1.5 °C 0.9 °C 1029.3 hPa SW 3.2 km/h 9.7 km/h 96 % 0.0 mm
06:37 1.6 °C 1.0 °C 1029.7 hPa SW 3.2 km/h 8.0 km/h 96 % 0.0 mm
06:42 1.7 °C 1.3 °C 1029.3 hPa SW 12.9 km/h 12.9 km/h 97 % 0.0 mm
06:52 1.9 °C 1.5 °C 1029.7 hPa SW 6.4 km/h 12.9 km/h 97 % 0.0 mm
07:02 1.9 °C 1.3 °C 1029.7 hPa SW 6.4 km/h 12.9 km/h 96 % 0.0 mm
07:12 1.9 °C 1.3 °C 1029.7 hPa SSW 1.6 km/h 9.7 km/h 96 % 0.0 mm
07:22 1.9 °C 1.3 °C 1029.7 hPa South 3.2 km/h 8.0 km/h 96 % 0.0 mm
07:32 2.0 °C 1.4 °C 1029.7 hPa Calm   4.8 km/h 96 % 0.0 mm
07:42 2.1 °C 1.5 °C 1029.7 hPa Calm   4.8 km/h 96 % 0.0 mm
07:52 2.2 °C 1.6 °C 1029.7 hPa Calm   4.8 km/h 96 % 0.0 mm
08:02 2.6 °C 2.2 °C 1029.7 hPa SW 6.4 km/h 6.4 km/h 97 % 0.0 mm
08:07 2.7 °C 2.1 °C 1029.7 hPa SW 1.6 km/h 8.0 km/h 96 % 0.0 mm
08:12 2.8 °C 2.2 °C 1029.7 hPa SW 4.8 km/h 8.0 km/h 96 % 0.0 mm
08:17 2.9 °C 2.3 °C 1029.7 hPa SW 1.6 km/h 8.0 km/h 96 % 0.0 mm
08:22 2.9 °C 2.2 °C 1029.3 hPa WSW 8.0 km/h 8.0 km/h 95 % 0.0 mm
08:27 3.0 °C 2.3 °C 1029.3 hPa WSW 1.6 km/h 9.7 km/h 95 % 0.0 mm
08:32 2.9 °C 2.0 °C 1029.3 hPa West 4.8 km/h 9.7 km/h 94 % 0.0 mm
08:42 2.9 °C 2.0 °C 1029.3 hPa West 4.8 km/h 11.3 km/h 94 % 0.0 mm
08:47 2.9 °C 2.0 °C 1029.3 hPa WSW 4.8 km/h 12.9 km/h 94 % 0.0 mm
08:52 2.9 °C 2.0 °C 1029.3 hPa WSW 6.4 km/h 12.9 km/h 94 % 0.0 mm
08:57 2.9 °C 1.9 °C 1029.3 hPa WSW 8.0 km/h 17.7 km/h 93 % 0.0 mm
09:02 2.8 °C 1.8 °C 1029.3 hPa West 6.4 km/h 17.7 km/h 93 % 0.0 mm
09:07 2.9 °C 1.9 °C 1029.3 hPa WSW 8.0 km/h 17.7 km/h 93 % 0.0 mm
09:12 2.9 °C 1.9 °C 1029.3 hPa WSW 8.0 km/h 17.7 km/h 93 % 0.0 mm
09:17 3.1 °C 2.1 °C 1029.3 hPa SW 4.8 km/h 14.5 km/h 93 % 0.0 mm
09:22 3.2 °C 2.2 °C 1029.3 hPa WSW 6.4 km/h 14.5 km/h 93 % 0.0 mm
09:32 3.3 °C 2.1 °C 1029.3 hPa WSW 11.3 km/h 17.7 km/h 92 % 0.0 mm
09:42 3.4 °C 2.2 °C 1029.0 hPa SSW 4.8 km/h 17.7 km/h 92 % 0.0 mm
09:47 3.6 °C 2.4 °C 1029.0 hPa WSW 9.7 km/h 17.7 km/h 92 % 0.0 mm
09:52 3.6 °C 2.3 °C 1029.3 hPa West 6.4 km/h 17.7 km/h 91 % 0.0 mm
10:02 3.8 °C 2.5 °C 1029.0 hPa SSW 12.9 km/h 17.7 km/h 91 % 0.0 mm
10:07 3.9 °C 2.4 °C 1028.7 hPa SW 11.3 km/h 19.3 km/h 90 % 0.0 mm
10:17 4.1 °C 2.6 °C 1029.0 hPa SW 9.7 km/h 19.3 km/h 90 % 0.0 mm
10:22 4.1 °C 2.5 °C 1029.0 hPa WSW 8.0 km/h 19.3 km/h 89 % 0.0 mm
10:27 4.1 °C 2.6 °C 1028.7 hPa WSW 14.5 km/h 20.9 km/h 90 % 0.0 mm
10:32 4.1 °C 2.5 °C 1028.7 hPa SW 9.7 km/h 20.9 km/h 89 % 0.0 mm
10:42 4.2 °C 2.5 °C 1028.7 hPa SW 14.5 km/h 22.5 km/h 89 % 0.0 mm
10:47 4.2 °C 2.5 °C 1028.7 hPa SW 9.7 km/h 24.1 km/h 89 % 0.0 mm
10:52 4.4 °C 2.9 °C 1028.7 hPa South 8.0 km/h 24.1 km/h 90 % 0.0 mm
11:02 4.7 °C 3.0 °C 1028.7 hPa WSW 12.9 km/h 19.3 km/h 89 % 0.0 mm
11:12 5.1 °C 3.3 °C 1028.7 hPa SW 16.1 km/h 17.7 km/h 88 % 0.0 mm
11:17 5.2 °C 3.2 °C 1028.7 hPa SW 6.4 km/h 17.7 km/h 87 % 0.0 mm
11:22 5.2 °C 3.2 °C 1028.7 hPa WSW 11.3 km/h 17.7 km/h 87 % 0.0 mm
11:32 5.5 °C 3.3 °C 1028.7 hPa South 11.3 km/h 20.9 km/h 86 % 0.0 mm
11:42 5.7 °C 3.5 °C 1028.3 hPa SW 17.7 km/h 24.1 km/h 86 % 0.0 mm
11:52 5.9 °C 3.6 °C 1028.0 hPa SW 6.4 km/h 24.1 km/h 85 % 0.0 mm
11:57 6.1 °C 3.6 °C 1028.0 hPa SSW 6.4 km/h 24.1 km/h 84 % 0.0 mm
12:02 6.3 °C 3.8 °C 1028.0 hPa SW 8.0 km/h 24.1 km/h 84 % 0.0 mm
12:07 6.4 °C 3.7 °C 1028.0 hPa SSW 6.4 km/h 22.5 km/h 83 % 0.0 mm
12:12 6.5 °C 3.6 °C 1028.0 hPa West 6.4 km/h 22.5 km/h 82 % 0.0 mm
12:17 6.6 °C 4.1 °C 1027.7 hPa SW 8.0 km/h 19.3 km/h 84 % 0.0 mm
12:22 6.6 °C 3.7 °C 1027.7 hPa SW 14.5 km/h 19.3 km/h 82 % 0.0 mm
12:32 6.7 °C 3.8 °C 1027.7 hPa WSW 6.4 km/h 20.9 km/h 82 % 0.0 mm
12:37 6.8 °C 3.9 °C 1027.7 hPa WSW 3.2 km/h 20.9 km/h 82 % 0.0 mm
12:42 6.8 °C 4.1 °C 1027.7 hPa SW 4.8 km/h 20.9 km/h 83 % 0.0 mm
12:47 6.9 °C 4.2 °C 1027.7 hPa WSW 3.2 km/h 19.3 km/h 83 % 0.0 mm
12:52 7.0 °C 4.1 °C 1027.3 hPa SW 11.3 km/h 19.3 km/h 82 % 0.0 mm
12:57 7.1 °C 4.2 °C 1027.3 hPa West 14.5 km/h 22.5 km/h 82 % 0.0 mm
13:02 7.3 °C 4.4 °C 1027.0 hPa Calm   22.5 km/h 82 % 0.0 mm
13:12 7.4 °C 4.2 °C 1027.0 hPa SW 17.7 km/h 22.5 km/h 80 % 0.0 mm
13:17 7.4 °C 4.2 °C 1027.0 hPa WSW 14.5 km/h 24.1 km/h 80 % 0.0 mm
13:22 7.4 °C 4.4 °C 1026.6 hPa WSW 14.5 km/h 24.1 km/h 81 % 0.0 mm
13:27 7.5 °C 4.3 °C 1026.6 hPa West 8.0 km/h 24.1 km/h 80 % 0.0 mm
13:32 7.6 °C 4.4 °C 1026.6 hPa SW 14.5 km/h 24.1 km/h 80 % 0.0 mm
13:37 7.6 °C 4.4 °C 1026.3 hPa West 16.1 km/h 22.5 km/h 80 % 0.0 mm
13:42 7.7 °C 4.3 °C 1026.3 hPa SW 14.5 km/h 22.5 km/h 79 % 0.0 mm
13:47 7.8 °C 4.6 °C 1026.0 hPa WSW 11.3 km/h 24.1 km/h 80 % 0.0 mm
13:52 7.9 °C 4.3 °C 1026.0 hPa WSW 17.7 km/h 24.1 km/h 78 % 0.0 mm
13:57 8.0 °C 4.6 °C 1026.0 hPa SSW 19.3 km/h 24.1 km/h 79 % 0.0 mm
14:02 8.1 °C 4.5 °C 1025.6 hPa West 11.3 km/h 24.1 km/h 78 % 0.0 mm
14:07 8.2 °C 4.4 °C 1025.6 hPa SW 12.9 km/h 27.4 km/h 77 % 0.0 mm
14:12 8.3 °C 4.7 °C 1025.6 hPa SW 11.3 km/h 27.4 km/h 78 % 0.0 mm
14:17 8.4 °C 4.6 °C 1025.6 hPa WSW 9.7 km/h 27.4 km/h 77 % 0.0 mm
14:22 8.4 °C 4.4 °C 1025.6 hPa WSW 20.9 km/h 27.4 km/h 76 % 0.0 mm
14:32 8.3 °C 4.5 °C 1025.6 hPa West 16.1 km/h 22.5 km/h 77 % 0.0 mm
14:37 8.3 °C 4.5 °C 1025.6 hPa West 12.9 km/h 24.1 km/h 77 % 0.0 mm
14:42 8.2 °C 4.4 °C 1025.6 hPa WSW 4.8 km/h 24.1 km/h 77 % 0.0 mm
14:52 8.2 °C 4.4 °C 1025.3 hPa WNW 8.0 km/h 24.1 km/h 77 % 0.0 mm
15:02 8.1 °C 4.5 °C 1024.9 hPa West 6.4 km/h 27.4 km/h 78 % 0.0 mm
15:07 8.1 °C 4.5 °C 1024.9 hPa WSW 17.7 km/h 22.5 km/h 78 % 0.0 mm
15:12 8.1 °C 4.5 °C 1024.9 hPa SW 14.5 km/h 22.5 km/h 78 % 0.0 mm
15:22 8.0 °C 4.6 °C 1024.9 hPa WSW 12.9 km/h 24.1 km/h 79 % 0.0 mm
15:27 8.0 °C 4.6 °C 1024.9 hPa SSW 9.7 km/h 22.5 km/h 79 % 0.0 mm
15:32 8.0 °C 4.6 °C 1024.9 hPa SW 11.3 km/h 22.5 km/h 79 % 0.0 mm
15:37 8.0 °C 4.6 °C 1024.6 hPa SW 8.0 km/h 22.5 km/h 79 % 0.0 mm
15:47 7.9 °C 4.8 °C 1024.6 hPa SSW 6.4 km/h 17.7 km/h 81 % 0.0 mm
15:52 7.9 °C 4.7 °C 1024.6 hPa SW 8.0 km/h 17.7 km/h 80 % 0.0 mm
15:57 7.9 °C 4.7 °C 1024.6 hPa SW 16.1 km/h 19.3 km/h 80 % 0.0 mm
16:02 7.9 °C 4.7 °C 1024.6 hPa SW 6.4 km/h 19.3 km/h 80 % 0.0 mm
16:12 7.8 °C 4.7 °C 1024.3 hPa SW 6.4 km/h 17.7 km/h 81 % 0.0 mm
16:17 7.8 °C 4.6 °C 1024.3 hPa SW 6.4 km/h 16.1 km/h 80 % 0.0 mm
16:22 7.8 °C 4.7 °C 1024.3 hPa SW 9.7 km/h 16.1 km/h 81 % 0.0 mm
16:27 7.8 °C 4.7 °C 1024.3 hPa SW 11.3 km/h 19.3 km/h 81 % 0.0 mm
16:32 7.7 °C 4.6 °C 1024.3 hPa WSW 9.7 km/h 19.3 km/h 81 % 0.0 mm
16:37 7.8 °C 4.6 °C 1024.3 hPa WSW 9.7 km/h 19.3 km/h 80 % 0.0 mm
16:42 7.8 °C 4.6 °C 1024.3 hPa WSW 8.0 km/h 19.3 km/h 80 % 0.0 mm
16:47 7.8 °C 4.6 °C 1024.3 hPa SW 11.3 km/h 22.5 km/h 80 % 0.0 mm
16:52 7.7 °C 4.5 °C 1024.3 hPa WSW 8.0 km/h 22.5 km/h 80 % 0.0 mm
16:57 7.7 °C 4.5 °C 1024.3 hPa SW 8.0 km/h 22.5 km/h 80 % 0.0 mm
17:02 7.7 °C 4.5 °C 1023.9 hPa SW 6.4 km/h 22.5 km/h 80 % 0.0 mm
17:12 7.7 °C 4.5 °C 1023.9 hPa SW 9.7 km/h 19.3 km/h 80 % 0.0 mm
17:17 7.6 °C 4.4 °C 1023.9 hPa SW 8.0 km/h 17.7 km/h 80 % 0.0 mm
17:22 7.6 °C 4.5 °C 1023.9 hPa SW 6.4 km/h 17.7 km/h 81 % 0.0 mm
17:32 7.3 °C 4.4 °C 1023.6 hPa SW 8.0 km/h 14.5 km/h 82 % 0.0 mm
17:37 7.3 °C 4.6 °C 1023.2 hPa SSW 6.4 km/h 14.5 km/h 83 % 0.0 mm
17:42 7.2 °C 4.3 °C 1023.2 hPa SSW 8.0 km/h 14.5 km/h 82 % 0.0 mm
17:52 7.0 °C 4.5 °C 1023.2 hPa SSW 8.0 km/h 17.7 km/h 84 % 0.0 mm
17:57 6.9 °C 4.4 °C 1023.2 hPa SW 6.4 km/h 17.7 km/h 84 % 0.0 mm
18:02 6.8 °C 4.5 °C 1023.2 hPa SSW 6.4 km/h 17.7 km/h 85 % 0.0 mm
18:07 6.8 °C 4.3 °C 1023.2 hPa SW 6.4 km/h 14.5 km/h 84 % 0.0 mm
18:12 6.8 °C 4.3 °C 1022.9 hPa SSW 4.8 km/h 14.5 km/h 84 % 0.0 mm
18:17 6.9 °C 4.2 °C 1022.9 hPa SW 8.0 km/h 17.7 km/h 83 % 0.0 mm
18:27 6.9 °C 4.2 °C 1022.9 hPa SW 19.3 km/h 19.3 km/h 83 % 0.0 mm
18:32 6.9 °C 4.2 °C 1022.9 hPa SW 14.5 km/h 19.3 km/h 83 % 0.0 mm
18:37 6.9 °C 4.0 °C 1022.6 hPa SSW 6.4 km/h 19.3 km/h 82 % 0.0 mm
18:42 6.9 °C 4.0 °C 1022.6 hPa SW 8.0 km/h 19.3 km/h 82 % 0.0 mm
18:47 6.9 °C 4.2 °C 1022.6 hPa SW 6.4 km/h 19.3 km/h 83 % 0.0 mm
18:52 6.8 °C 4.3 °C 1022.6 hPa SW 12.9 km/h 19.3 km/h 84 % 0.0 mm
19:02 6.8 °C 4.1 °C 1022.6 hPa SSW 6.4 km/h 19.3 km/h 83 % 0.0 mm
19:12 6.9 °C 4.2 °C 1022.2 hPa SSW 4.8 km/h 17.7 km/h 83 % 0.0 mm
19:22 6.9 °C 4.0 °C 1022.2 hPa SSW 11.3 km/h 14.5 km/h 82 % 0.0 mm
19:27 6.9 °C 4.0 °C 1022.2 hPa SSW 11.3 km/h 19.3 km/h 82 % 0.0 mm
19:32 6.8 °C 4.1 °C 1022.2 hPa South 11.3 km/h 19.3 km/h 83 % 0.0 mm
19:37 6.7 °C 4.0 °C 1022.2 hPa SSW 9.7 km/h 17.7 km/h 83 % 0.0 mm
19:47 6.7 °C 4.0 °C 1021.9 hPa SW 12.9 km/h 19.3 km/h 83 % 0.0 mm
19:52 6.7 °C 4.0 °C 1021.9 hPa SSW 9.7 km/h 19.3 km/h 83 % 0.0 mm
19:57 6.7 °C 4.0 °C 1021.9 hPa SSW 9.7 km/h 20.9 km/h 83 % 0.0 mm
20:02 6.7 °C 4.0 °C 1021.9 hPa South 8.0 km/h 20.9 km/h 83 % 0.0 mm
20:07 6.6 °C 4.1 °C 1021.6 hPa SW 8.0 km/h 19.3 km/h 84 % 0.0 mm
20:12 6.6 °C 4.1 °C 1021.6 hPa South 6.4 km/h 19.3 km/h 84 % 0.0 mm
20:22 6.5 °C 4.0 °C 1021.6 hPa SSW 8.0 km/h 19.3 km/h 84 % 0.0 mm
20:32 6.6 °C 4.1 °C 1021.6 hPa SW 14.5 km/h 19.3 km/h 84 % 0.0 mm
20:37 6.7 °C 4.0 °C 1021.2 hPa SW 11.3 km/h 17.7 km/h 83 % 0.0 mm
20:42 6.8 °C 4.1 °C 1021.2 hPa SW 9.7 km/h 17.7 km/h 83 % 0.0 mm
20:47 6.7 °C 4.0 °C 1021.2 hPa SW 9.7 km/h 22.5 km/h 83 % 0.0 mm
20:57 6.7 °C 4.0 °C 1020.9 hPa SW 14.5 km/h 22.5 km/h 83 % 0.0 mm
21:02 6.7 °C 4.0 °C 1020.9 hPa SSW 6.4 km/h 22.5 km/h 83 % 0.0 mm
21:12 6.8 °C 4.1 °C 1020.9 hPa SW 8.0 km/h 19.3 km/h 83 % 0.0 mm
21:17 6.8 °C 3.9 °C 1020.9 hPa SW 12.9 km/h 19.3 km/h 82 % 0.0 mm
21:27 6.8 °C 3.9 °C 1020.5 hPa SW 11.3 km/h 20.9 km/h 82 % 0.0 mm
21:32 6.9 °C 4.0 °C 1020.5 hPa SW 12.9 km/h 20.9 km/h 82 % 0.0 mm
21:37 6.8 °C 3.9 °C 1020.5 hPa SW 9.7 km/h 24.1 km/h 82 % 0.0 mm
21:47 6.9 °C 4.0 °C 1020.5 hPa West 9.7 km/h 27.4 km/h 82 % 0.0 mm
21:52 6.9 °C 4.0 °C 1020.2 hPa SW 17.7 km/h 27.4 km/h 82 % 0.0 mm
22:02 6.9 °C 4.0 °C 1020.2 hPa SW 9.7 km/h 27.4 km/h 82 % 0.0 mm
22:12 6.8 °C 4.1 °C 1019.9 hPa SW 14.5 km/h 25.7 km/h 83 % 0.0 mm
22:17 6.8 °C 3.9 °C 1019.9 hPa WSW 8.0 km/h 22.5 km/h 82 % 0.0 mm
22:22 6.7 °C 4.0 °C 1019.9 hPa SW 12.9 km/h 22.5 km/h 83 % 0.0 mm
22:32 6.7 °C 4.0 °C 1019.5 hPa SW 11.3 km/h 22.5 km/h 83 % 0.0 mm
22:37 6.7 °C 4.0 °C 1019.5 hPa West 11.3 km/h 24.1 km/h 83 % 0.0 mm
22:42 6.6 °C 3.9 °C 1019.5 hPa South 8.0 km/h 24.1 km/h 83 % 0.0 mm
22:47 6.6 °C 3.9 °C 1019.5 hPa SW 11.3 km/h 22.5 km/h 83 % 0.0 mm
22:52 6.6 °C 3.9 °C 1019.5 hPa WSW 9.7 km/h 22.5 km/h 83 % 0.0 mm
22:57 6.6 °C 3.9 °C 1019.2 hPa South 9.7 km/h 20.9 km/h 83 % 0.0 mm
23:02 6.6 °C 3.9 °C 1019.2 hPa SW 12.9 km/h 20.9 km/h 83 % 0.0 mm
23:12 6.7 °C 4.0 °C 1018.8 hPa SSW 12.9 km/h 22.5 km/h 83 % 0.0 mm
23:17 6.7 °C 4.0 °C 1018.8 hPa SW 8.0 km/h 24.1 km/h 83 % 0.0 mm
23:22 6.7 °C 4.0 °C 1018.8 hPa WSW 14.5 km/h 24.1 km/h 83 % 0.0 mm
23:27 6.7 °C 3.8 °C 1018.5 hPa SSW 14.5 km/h 27.4 km/h 82 % 0.0 mm
23:32 6.7 °C 3.8 °C 1018.5 hPa SW 17.7 km/h 27.4 km/h 82 % 0.0 mm
23:37 6.7 °C 3.8 °C 1018.5 hPa WSW 12.9 km/h 25.7 km/h 82 % 0.0 mm
23:42 6.7 °C 3.8 °C 1018.5 hPa SW 19.3 km/h 25.7 km/h 82 % 0.0 mm
23:47 6.7 °C 3.8 °C 1018.5 hPa SW 16.1 km/h 25.7 km/h 82 % 0.0 mm
23:52 6.6 °C 3.7 °C 1018.5 hPa SW 17.7 km/h 25.7 km/h 82 % 0.0 mm
23:57 6.6 °C 3.7 °C 1018.2 hPa SSW 9.7 km/h 25.7 km/h 82 % 0.0 mm
Meteo18
Compliments of Weather Underground - 4 mb

Script developed by  Jim McMurry - jmcmurry@mwt.net Adapted for the template by  Wim van der Kuil - Leuven-Template.eu

You find our weather info also at:

European Weather Network

Weather Underground

Equipment we use:

Weather-station
Davis Vue

Weather-program
Meteohub

Weather-server
Raspberry PI 2 B+

Provider
1 and 1

Davis Vue

Meteohub

Raspberry PI 2 B+

1 and 1